Terminal Aerodrome Forecast
Issued by NWS North Platte, NE

Home | Current Version | Previous Version | Text Only | Print | Product List | Glossary On
Versions: 1 2 3 4 5 6 7 8 9 10 11 12 13 14 15
000
FTUS43 KLBF 250520
TAFLBF
TAF
KLBF 250520Z 2506/2606 14011KT P6SM SKC WS010/19050KT
     FM251100 14008KT P6SM SCT250
     FM251500 14007KT P6SM SCT250
     FM251800 34008KT P6SM SCT100 BKN250
     FM252100 02010KT P6SM SCT100 BKN250=

USA.gov is the U.S. government's official web portal to all federal, state and local government web resources and services.